sensor_id;sensor_type;location;lat;lon;timestamp;pressure;altitude;pressure_sealevel;temperature;humidity
72116;BME280;59991;52.140;5.428;2023-02-22T00:00:02;101597.72;;;6.64;98.95
72116;BME280;59991;52.140;5.428;2023-02-22T00:00:39;101602.47;;;6.67;99.30
72116;BME280;59991;52.140;5.428;2023-02-22T00:01:15;101608.38;;;6.69;99.08
72116;BME280;59991;52.140;5.428;2023-02-22T00:01:58;101592.44;;;6.67;99.49
72116;BME280;59991;52.140;5.428;2023-02-22T00:02:45;101598.31;;;6.69;99.57
72116;BME280;59991;52.140;5.428;2023-02-22T00:03:28;101594.03;;;6.68;98.79
72116;BME280;59991;52.140;5.428;2023-02-22T00:04:05;101598.66;;;6.68;98.97
72116;BME280;59991;52.140;5.428;2023-02-22T00:04:37;101595.94;;;6.68;98.69
72116;BME280;59991;52.140;5.428;2023-02-22T00:05:09;101600.09;;;6.65;99.04
72116;BME280;59991;52.140;5.428;2023-02-22T00:05:43;101591.63;;;6.67;98.34
72116;BME280;59991;52.140;5.428;2023-02-22T00:06:20;101589.25;;;6.65;98.74
72116;BME280;59991;52.140;5.428;2023-02-22T00:06:52;101592.31;;;6.64;98.97
72116;BME280;59991;52.140;5.428;2023-02-22T00:07:23;101593.75;;;6.61;98.78
72116;BME280;59991;52.140;5.428;2023-02-22T00:07:55;101588.66;;;6.59;98.46
72116;BME280;59991;52.140;5.428;2023-02-22T00:08:29;101596.59;;;6.65;98.91
72116;BME280;59991;52.140;5.428;2023-02-22T00:09:01;101593.09;;;6.64;99.10
72116;BME280;59991;52.140;5.428;2023-02-22T00:09:33;101594.22;;;6.63;98.79
72116;BME280;59991;52.140;5.428;2023-02-22T00:10:05;101588.78;;;6.63;98.91
72116;BME280;59991;52.140;5.428;2023-02-22T00:10:39;101601.69;;;6.66;98.86
72116;BME280;59991;52.140;5.428;2023-02-22T00:11:10;101587.69;;;6.64;99.45
72116;BME280;59991;52.140;5.428;2023-02-22T00:11:46;101598.50;;;6.64;99.04
72116;BME280;59991;52.140;5.428;2023-02-22T00:12:18;101593.09;;;6.64;99.34
72116;BME280;59991;52.140;5.428;2023-02-22T00:12:53;101595.47;;;6.66;99.17
72116;BME280;59991;52.140;5.428;2023-02-22T00:13:25;101595.00;;;6.64;98.97
72116;BME280;59991;52.140;5.428;2023-02-22T00:13:59;101591.84;;;6.62;99.03
72116;BME280;59991;52.140;5.428;2023-02-22T00:14:32;101593.88;;;6.65;99.42
72116;BME280;59991;52.140;5.428;2023-02-22T00:15:03;101589.13;;;6.62;98.97
72116;BME280;59991;52.140;5.428;2023-02-22T00:15:36;101601.34;;;6.68;99.31
72116;BME280;59991;52.140;5.428;2023-02-22T00:16:07;101594.03;;;6.68;99.43
72116;BME280;59991;52.140;5.428;2023-02-22T00:16:38;101580.66;;;6.63;99.08
72116;BME280;59991;52.140;5.428;2023-02-22T00:17:10;101597.38;;;6.65;98.62
72116;BME280;59991;52.140;5.428;2023-02-22T00:17:43;101592.75;;;6.66;99.06
72116;BME280;59991;52.140;5.428;2023-02-22T00:18:16;101593.56;;;6.66;98.95
72116;BME280;59991;52.140;5.428;2023-02-22T00:18:49;101596.06;;;6.71;99.11
72116;BME280;59991;52.140;5.428;2023-02-22T00:19:20;101595.59;;;6.69;99.21
72116;BME280;59991;52.140;5.428;2023-02-22T00:19:52;101599.91;;;6.70;98.91
72116;BME280;59991;52.140;5.428;2023-02-22T00:20:24;101592.91;;;6.69;99.02
72116;BME280;59991;52.140;5.428;2023-02-22T00:20:57;101591.78;;;6.70;98.79
72116;BME280;59991;52.140;5.428;2023-02-22T00:21:32;101592.56;;;6.71;98.94
72116;BME280;59991;52.140;5.428;2023-02-22T00:22:03;101589.06;;;6.70;98.84
72116;BME280;59991;52.140;5.428;2023-02-22T00:22:35;101590.19;;;6.69;98.65
72116;BME280;59991;52.140;5.428;2023-02-22T00:23:08;101585.91;;;6.68;98.59
72116;BME280;59991;52.140;5.428;2023-02-22T00:23:42;101587.16;;;6.71;98.47
72116;BME280;59991;52.140;5.428;2023-02-22T00:24:16;101585.56;;;6.70;98.74
72116;BME280;59991;52.140;5.428;2023-02-22T00:24:53;101597.19;;;6.70;98.46
72116;BME280;59991;52.140;5.428;2023-02-22T00:25:25;101592.09;;;6.69;98.32
72116;BME280;59991;52.140;5.428;2023-02-22T00:25:58;101591.78;;;6.70;98.39
72116;BME280;59991;52.140;5.428;2023-02-22T00:26:32;101586.34;;;6.70;98.87
72116;BME280;59991;52.140;5.428;2023-02-22T00:27:03;101590.19;;;6.69;98.76
72116;BME280;59991;52.140;5.428;2023-02-22T00:27:35;101581.59;;;6.67;98.82
72116;BME280;59991;52.140;5.428;2023-02-22T00:28:06;101599.56;;;6.72;98.67
72116;BME280;59991;52.140;5.428;2023-02-22T00:28:38;101596.06;;;6.71;98.60
72116;BME280;59991;52.140;5.428;2023-02-22T00:29:10;101587.00;;;6.67;98.47
72116;BME280;59991;52.140;5.428;2023-02-22T00:29:45;101589.72;;;6.67;98.59
72116;BME280;59991;52.140;5.428;2023-02-22T00:30:20;101592.44;;;6.67;98.05
72116;BME280;59991;52.140;5.428;2023-02-22T00:30:52;101593.22;;;6.68;98.09
72116;BME280;59991;52.140;5.428;2023-02-22T00:31:25;101592.91;;;6.69;98.76
72116;BME280;59991;52.140;5.428;2023-02-22T00:31:56;101590.53;;;6.68;98.29
72116;BME280;59991;52.140;5.428;2023-02-22T00:32:28;101592.09;;;6.69;98.58
72116;BME280;59991;52.140;5.428;2023-02-22T00:33:00;101591.31;;;6.68;98.81
72116;BME280;59991;52.140;5.428;2023-02-22T00:33:32;101596.72;;;6.68;98.16
72116;BME280;59991;52.140;5.428;2023-02-22T00:34:03;101590.53;;;6.68;98.54
72116;BME280;59991;52.140;5.428;2023-02-22T00:34:35;101590.06;;;6.66;98.47
72116;BME280;59991;52.140;5.428;2023-02-22T00:35:06;101586.75;;;6.60;98.12
72116;BME280;59991;52.140;5.428;2023-02-22T00:35:39;101597.72;;;6.64;98.37
72116;BME280;59991;52.140;5.428;2023-02-22T00:36:12;101586.88;;;6.64;98.36
72116;BME280;59991;52.140;5.428;2023-02-22T00:36:47;101598.50;;;6.64;98.68
72116;BME280;59991;52.140;5.428;2023-02-22T00:37:19;101592.75;;;6.66;98.29
72116;BME280;59991;52.140;5.428;2023-02-22T00:37:54;101593.56;;;6.66;98.78
72116;BME280;59991;52.140;5.428;2023-02-22T00:38:25;101588.00;;;6.63;98.31
72116;BME280;59991;52.140;5.428;2023-02-22T00:38:57;101591.97;;;6.65;98.45
72116;BME280;59991;52.140;5.428;2023-02-22T00:39:29;101583.03;;;6.65;98.32
72116;BME280;59991;52.140;5.428;2023-02-22T00:40:00;101586.41;;;6.62;98.99
72116;BME280;59991;52.140;5.428;2023-02-22T00:40:33;101606.31;;;6.66;99.30
72116;BME280;59991;52.140;5.428;2023-02-22T00:41:06;101596.28;;;6.66;99.07
72116;BME280;59991;52.140;5.428;2023-02-22T00:41:37;101593.09;;;6.64;98.94
72116;BME280;59991;52.140;5.428;2023-02-22T00:42:09;101590.84;;;6.66;99.04
72116;BME280;59991;52.140;5.428;2023-02-22T00:42:40;101588.78;;;6.63;98.79
72116;BME280;59991;52.140;5.428;2023-02-22T00:43:12;101596.28;;;6.66;98.49
72116;BME280;59991;52.140;5.428;2023-02-22T00:43:43;101591.19;;;6.65;99.03
72116;BME280;59991;52.140;5.428;2023-02-22T00:44:15;101582.25;;;6.64;98.83
72116;BME280;59991;52.140;5.428;2023-02-22T00:44:47;101591.19;;;6.65;99.02
72116;BME280;59991;52.140;5.428;2023-02-22T00:45:20;101593.56;;;6.66;98.54
72116;BME280;59991;52.140;5.428;2023-02-22T00:45:52;101593.44;;;6.63;98.81
72116;BME280;59991;52.140;5.428;2023-02-22T00:46:24;101589.59;;;6.64;98.46
72116;BME280;59991;52.140;5.428;2023-02-22T00:46:55;101593.09;;;6.64;98.83
72116;BME280;59991;52.140;5.428;2023-02-22T00:47:27;101589.91;;;6.62;99.04
72116;BME280;59991;52.140;5.428;2023-02-22T00:47:59;101590.06;;;6.66;99.12
72116;BME280;59991;52.140;5.428;2023-02-22T00:48:31;101593.09;;;6.64;98.87
72116;BME280;59991;52.140;5.428;2023-02-22T00:49:02;101586.88;;;6.64;98.63
72116;BME280;59991;52.140;5.428;2023-02-22T00:49:36;101584.97;;;6.64;99.22
72116;BME280;59991;52.140;5.428;2023-02-22T00:50:08;101590.06;;;6.66;99.24
72116;BME280;59991;52.140;5.428;2023-02-22T00:50:40;101581.13;;;6.65;98.58
72116;BME280;59991;52.140;5.428;2023-02-22T00:51:11;101584.97;;;6.64;99.09
72116;BME280;59991;52.140;5.428;2023-02-22T00:51:43;101585.28;;;6.63;98.83
72116;BME280;59991;52.140;5.428;2023-02-22T00:52:15;101582.91;;;6.61;98.76
72116;BME280;59991;52.140;5.428;2023-02-22T00:52:46;101578.16;;;6.58;98.45
72116;BME280;59991;52.140;5.428;2023-02-22T00:53:18;101579.75;;;6.59;98.83
72116;BME280;59991;52.140;5.428;2023-02-22T00:53:50;101585.16;;;6.59;98.43
72116;BME280;59991;52.140;5.428;2023-02-22T00:54:22;101581.66;;;6.58;98.62
72116;BME280;59991;52.140;5.428;2023-02-22T00:54:54;101579.75;;;6.59;98.74
72116;BME280;59991;52.140;5.428;2023-02-22T00:55:28;101580.88;;;6.58;98.79
72116;BME280;59991;52.140;5.428;2023-02-22T00:56:00;101571.94;;;6.57;98.74
72116;BME280;59991;52.140;5.428;2023-02-22T00:56:32;101572.59;;;6.54;98.91
72116;BME280;59991;52.140;5.428;2023-02-22T00:57:04;101570.56;;;6.51;98.85
72116;BME280;59991;52.140;5.428;2023-02-22T00:57:36;101570.56;;;6.51;98.80
72116;BME280;59991;52.140;5.428;2023-02-22T00:58:07;101575.66;;;6.53;98.68
72116;BME280;59991;52.140;5.428;2023-02-22T00:58:39;101572.16;;;6.52;99.18
72116;BME280;59991;52.140;5.428;2023-02-22T00:59:10;101570.56;;;6.51;99.04
72116;BME280;59991;52.140;5.428;2023-02-22T00:59:41;101569.00;;;6.50;98.97
72116;BME280;59991;52.140;5.428;2023-02-22T01:00:17;101565.94;;;6.52;98.74
72116;BME280;59991;52.140;5.428;2023-02-22T01:00:49;101569.78;;;6.51;99.00
72116;BME280;59991;52.140;5.428;2023-02-22T01:01:20;101565.94;;;6.52;98.43
72116;BME280;59991;52.140;5.428;2023-02-22T01:01:54;101569.31;;;6.49;99.02
72116;BME280;59991;52.140;5.428;2023-02-22T01:02:25;101574.09;;;6.52;98.73
72116;BME280;59991;52.140;5.428;2023-02-22T01:02:58;101564.81;;;6.53;99.21
72116;BME280;59991;52.140;5.428;2023-02-22T01:03:30;101577.59;;;6.52;98.85
72116;BME280;59991;52.140;5.428;2023-02-22T01:04:02;101573.75;;;6.53;98.38
72116;BME280;59991;52.140;5.428;2023-02-22T01:04:34;101574.09;;;6.52;98.51
72116;BME280;59991;52.140;5.428;2023-02-22T01:05:06;101560.88;;;6.50;99.37
72116;BME280;59991;52.140;5.428;2023-02-22T01:05:39;101566.28;;;6.50;99.11
72116;BME280;59991;52.140;5.428;2023-02-22T01:06:11;101574.88;;;6.52;99.06
72116;BME280;59991;52.140;5.428;2023-02-22T01:06:43;101562.13;;;6.53;98.94
72116;BME280;59991;52.140;5.428;2023-02-22T01:07:14;101570.25;;;6.53;99.12
72116;BME280;59991;52.140;5.428;2023-02-22T01:07:47;101563.25;;;6.52;99.10
72116;BME280;59991;52.140;5.428;2023-02-22T01:08:19;101564.81;;;6.53;98.80
72116;BME280;59991;52.140;5.428;2023-02-22T01:08:51;101561.66;;;6.51;99.32
72116;BME280;59991;52.140;5.428;2023-02-22T01:09:22;101555.44;;;6.50;98.97
72116;BME280;59991;52.140;5.428;2023-02-22T01:09:54;101554.78;;;6.53;98.82
72116;BME280;59991;52.140;5.428;2023-02-22T01:10:28;101553.19;;;6.52;99.42
72116;BME280;59991;52.140;5.428;2023-02-22T01:11:00;101560.53;;;6.52;99.11
72116;BME280;59991;52.140;5.428;2023-02-22T01:11:31;101554.66;;;6.50;99.26
72116;BME280;59991;52.140;5.428;2023-02-22T01:12:03;101553.19;;;6.52;98.99
72116;BME280;59991;52.140;5.428;2023-02-22T01:12:35;101558.63;;;6.52;98.54
72116;BME280;59991;52.140;5.428;2023-02-22T01:13:07;101554.66;;;6.50;98.67
72116;BME280;59991;52.140;5.428;2023-02-22T01:13:40;101551.00;;;6.46;98.43
72116;BME280;59991;52.140;5.428;2023-02-22T01:14:11;101553.91;;;6.41;98.38
72116;BME280;59991;52.140;5.428;2023-02-22T01:14:43;101565.69;;;6.45;98.70
72116;BME280;59991;52.140;5.428;2023-02-22T01:15:15;101559.78;;;6.43;98.95
72116;BME280;59991;52.140;5.428;2023-02-22T01:15:46;101553.91;;;6.41;98.95
72116;BME280;59991;52.140;5.428;2023-02-22T01:16:19;101558.22;;;6.42;98.74
72116;BME280;59991;52.140;5.428;2023-02-22T01:16:52;101555.03;;;6.40;98.70
72116;BME280;59991;52.140;5.428;2023-02-22T01:17:25;101566.00;;;6.43;99.00
72116;BME280;59991;52.140;5.428;2023-02-22T01:17:58;101566.47;;;6.45;98.86
72116;BME280;59991;52.140;5.428;2023-02-22T01:18:29;101547.84;;;6.44;99.09
72116;BME280;59991;52.140;5.428;2023-02-22T01:19:01;101552.13;;;6.45;99.41
72116;BME280;59991;52.140;5.428;2023-02-22T01:19:32;101554.06;;;6.44;99.30
72116;BME280;59991;52.140;5.428;2023-02-22T01:20:06;101552.28;;;6.48;99.75
72116;BME280;59991;52.140;5.428;2023-02-22T01:20:40;101550.22;;;6.45;99.48
72116;BME280;59991;52.140;5.428;2023-02-22T01:21:12;101544.00;;;6.45;98.96
72116;BME280;59991;52.140;5.428;2023-02-22T01:21:43;101553.38;;;6.47;98.86
72116;BME280;59991;52.140;5.428;2023-02-22T01:22:15;101549.88;;;6.47;99.26
72116;BME280;59991;52.140;5.428;2023-02-22T01:22:48;101547.19;;;6.47;99.41
72116;BME280;59991;52.140;5.428;2023-02-22T01:23:20;101553.06;;;6.49;98.73
72116;BME280;59991;52.140;5.428;2023-02-22T01:23:52;101553.06;;;6.49;99.42
72116;BME280;59991;52.140;5.428;2023-02-22T01:24:25;101554.66;;;6.50;99.48
72116;BME280;59991;52.140;5.428;2023-02-22T01:24:56;101549.56;;;6.48;99.29
72116;BME280;59991;52.140;5.428;2023-02-22T01:25:29;101552.41;;;6.52;99.37
72116;BME280;59991;52.140;5.428;2023-02-22T01:26:02;101549.22;;;6.50;99.57
72116;BME280;59991;52.140;5.428;2023-02-22T01:26:35;101554.00;;;6.53;99.23
72116;BME280;59991;52.140;5.428;2023-02-22T01:27:08;101546.97;;;6.52;99.58
72116;BME280;59991;52.140;5.428;2023-02-22T01:27:41;101546.19;;;6.51;99.54
72116;BME280;59991;52.140;5.428;2023-02-22T01:28:12;101550.50;;;6.52;99.37
72116;BME280;59991;52.140;5.428;2023-02-22T01:28:44;101550.81;;;6.51;99.29
72116;BME280;59991;52.140;5.428;2023-02-22T01:29:16;101541.91;;;6.50;99.42
72116;BME280;59991;52.140;5.428;2023-02-22T01:29:48;101547.66;;;6.49;98.73
72116;BME280;59991;52.140;5.428;2023-02-22T01:30:23;101544.59;;;6.50;98.93
72116;BME280;59991;52.140;5.428;2023-02-22T01:30:55;101551.16;;;6.49;99.26
72116;BME280;59991;52.140;5.428;2023-02-22T01:31:27;101553.06;;;6.49;98.96
72116;BME280;59991;52.140;5.428;2023-02-22T01:31:58;101550.69;;;6.47;99.07
72116;BME280;59991;52.140;5.428;2023-02-22T01:32:31;101552.13;;;6.45;99.24
72116;BME280;59991;52.140;5.428;2023-02-22T01:33:05;101553.72;;;6.46;98.61
72116;BME280;59991;52.140;5.428;2023-02-22T01:33:39;101550.22;;;6.45;98.80
72116;BME280;59991;52.140;5.428;2023-02-22T01:34:11;101551.66;;;6.43;98.90
72116;BME280;59991;52.140;5.428;2023-02-22T01:34:43;101545.91;;;6.44;99.44
72116;BME280;59991;52.140;5.428;2023-02-22T01:35:16;101545.13;;;6.44;99.14
72116;BME280;59991;52.140;5.428;2023-02-22T01:35:48;101546.72;;;6.45;99.49
72116;BME280;59991;52.140;5.428;2023-02-22T01:36:21;101543.69;;;6.46;99.22
72116;BME280;59991;52.140;5.428;2023-02-22T01:36:52;101545.47;;;6.42;99.45
72116;BME280;59991;52.140;5.428;2023-02-22T01:37:24;101545.13;;;6.44;99.80
72116;BME280;59991;52.140;5.428;2023-02-22T01:37:56;101544.00;;;6.45;99.24
72116;BME280;59991;52.140;5.428;2023-02-22T01:38:28;101547.50;;;6.45;99.45
72116;BME280;59991;52.140;5.428;2023-02-22T01:38:59;101551.34;;;6.44;99.12
72116;BME280;59991;52.140;5.428;2023-02-22T01:39:31;101542.41;;;6.44;99.19
72116;BME280;59991;52.140;5.428;2023-02-22T01:40:05;101546.25;;;6.43;98.83
72116;BME280;59991;52.140;5.428;2023-02-22T01:40:39;101548.97;;;6.43;98.82
72116;BME280;59991;52.140;5.428;2023-02-22T01:41:12;101542.75;;;6.42;98.82
72116;BME280;59991;52.140;5.428;2023-02-22T01:41:44;101546.25;;;6.43;99.12
72116;BME280;59991;52.140;5.428;2023-02-22T01:42:16;101541.94;;;6.42;98.89
72116;BME280;59991;52.140;5.428;2023-02-22T01:42:50;101548.97;;;6.43;99.31
72116;BME280;59991;52.140;5.428;2023-02-22T01:43:27;101533.38;;;6.40;98.72
72116;BME280;59991;52.140;5.428;2023-02-22T01:46:00;101535.59;;;6.38;98.64
72116;BME280;59991;52.140;5.428;2023-02-22T01:46:32;101538.31;;;6.38;99.14
72116;BME280;59991;52.140;5.428;2023-02-22T01:47:05;101535.59;;;6.38;98.74
72116;BME280;59991;52.140;5.428;2023-02-22T01:47:36;101528.59;;;6.37;99.01
72116;BME280;59991;52.140;5.428;2023-02-22T01:48:12;101530.09;;;6.34;99.12
72116;BME280;59991;52.140;5.428;2023-02-22T01:48:55;101533.91;;;6.33;98.66
72116;BME280;59991;52.140;5.428;2023-02-22T01:49:36;101533.59;;;6.35;99.17
72116;BME280;59991;52.140;5.428;2023-02-22T01:50:09;101534.72;;;6.34;98.99
72116;BME280;59991;52.140;5.428;2023-02-22T01:50:51;101535.84;;;6.33;99.35
72116;BME280;59991;52.140;5.428;2023-02-22T01:51:30;101530.41;;;6.33;99.48
72116;BME280;59991;52.140;5.428;2023-02-22T01:52:06;101532.00;;;6.34;99.24
72116;BME280;59991;52.140;5.428;2023-02-22T01:52:41;101526.91;;;6.32;99.18
72116;BME280;59991;52.140;5.428;2023-02-22T01:53:15;101522.28;;;6.33;99.08
72116;BME280;59991;52.140;5.428;2023-02-22T01:53:57;101529.94;;;6.31;99.32
72116;BME280;59991;52.140;5.428;2023-02-22T01:54:38;101531.06;;;6.30;98.81
72116;BME280;59991;52.140;5.428;2023-02-22T01:55:11;101522.47;;;6.28;99.37
72116;BME280;59991;52.140;5.428;2023-02-22T01:55:44;101522.81;;;6.26;98.95
72116;BME280;59991;52.140;5.428;2023-02-22T01:56:18;101529.81;;;6.27;99.01
72116;BME280;59991;52.140;5.428;2023-02-22T01:57:00;101529.81;;;6.27;99.17
72116;BME280;59991;52.140;5.428;2023-02-22T01:57:36;101529.03;;;6.27;99.11
72116;BME280;59991;52.140;5.428;2023-02-22T01:58:08;101535.22;;;6.27;99.21
72116;BME280;59991;52.140;5.428;2023-02-22T01:58:44;101531.41;;;6.28;99.64
72116;BME280;59991;52.140;5.428;2023-02-22T01:59:17;101532.19;;;6.29;99.63
72116;BME280;59991;52.140;5.428;2023-02-22T01:59:53;101528.38;;;6.30;99.66
72116;BME280;59991;52.140;5.428;2023-02-22T02:00:26;101526.78;;;6.29;99.45
72116;BME280;59991;52.140;5.428;2023-02-22T02:00:58;101529.94;;;6.31;99.24
72116;BME280;59991;52.140;5.428;2023-02-22T02:01:29;101529.81;;;6.27;99.56
72116;BME280;59991;52.140;5.428;2023-02-22T02:02:01;101531.88;;;6.30;99.77
72116;BME280;59991;52.140;5.428;2023-02-22T02:02:36;101521.38;;;6.29;99.16
72116;BME280;59991;52.140;5.428;2023-02-22T02:03:22;101530.75;;;6.31;99.49
72116;BME280;59991;52.140;5.428;2023-02-22T02:03:58;101529.81;;;6.27;99.39
72116;BME280;59991;52.140;5.428;2023-02-22T02:04:32;101533.31;;;6.28;99.28
72116;BME280;59991;52.140;5.428;2023-02-22T02:05:04;101529.94;;;6.31;99.46
72116;BME280;59991;52.140;5.428;2023-02-22T02:05:38;101527.25;;;6.31;98.81
72116;BME280;59991;52.140;5.428;2023-02-22T02:06:13;101531.06;;;6.30;98.80
72116;BME280;59991;52.140;5.428;2023-02-22T02:06:45;101524.41;;;6.27;98.86
72116;BME280;59991;52.140;5.428;2023-02-22T02:07:19;101533.44;;;6.31;99.04
72116;BME280;59991;52.140;5.428;2023-02-22T02:07:52;101521.81;;;6.31;99.01
72116;BME280;59991;52.140;5.428;2023-02-22T02:08:37;101514.34;;;6.28;98.64
72116;BME280;59991;52.140;5.428;2023-02-22T02:09:20;101518.00;;;6.32;98.99
72116;BME280;59991;52.140;5.428;2023-02-22T02:09:57;101529.28;;;6.34;98.62
72116;BME280;59991;52.140;5.428;2023-02-22T02:10:30;101517.19;;;6.31;99.02
72116;BME280;59991;52.140;5.428;2023-02-22T02:11:04;101517.66;;;6.33;99.38
72116;BME280;59991;52.140;5.428;2023-02-22T02:11:40;101514.97;;;6.33;98.94
72116;BME280;59991;52.140;5.428;2023-02-22T02:12:14;101516.88;;;6.33;98.96
72116;BME280;59991;52.140;5.428;2023-02-22T02:12:48;101519.56;;;6.33;99.06
72116;BME280;59991;52.140;5.428;2023-02-22T02:13:20;101511.47;;;6.33;99.04
72116;BME280;59991;52.140;5.428;2023-02-22T02:13:54;101515.28;;;6.32;98.76
72116;BME280;59991;52.140;5.428;2023-02-22T02:14:26;101506.22;;;6.28;98.20
72116;BME280;59991;52.140;5.428;2023-02-22T02:15:26;101515.63;;;6.30;98.33
72116;BME280;59991;52.140;5.428;2023-02-22T02:15:59;101513.56;;;6.27;98.46
72116;BME280;59991;52.140;5.428;2023-02-22T02:16:50;101514.34;;;6.28;98.22
72116;BME280;59991;52.140;5.428;2023-02-22T02:17:22;101517.41;;;6.26;98.18
72116;BME280;59991;52.140;5.428;2023-02-22T02:18:02;101511.19;;;6.26;98.47
72116;BME280;59991;52.140;5.428;2023-02-22T02:18:34;101506.09;;;6.24;98.18
72116;BME280;59991;52.140;5.428;2023-02-22T02:19:14;101509.59;;;6.24;98.33
72116;BME280;59991;52.140;5.428;2023-02-22T02:20:13;101510.72;;;6.23;98.50
72116;BME280;59991;52.140;5.428;2023-02-22T02:24:31;101507.31;;;6.14;97.88
72116;BME280;59991;52.140;5.428;2023-02-22T02:26:29;101496.00;;;6.12;97.95
72116;BME280;59991;52.140;5.428;2023-02-22T02:27:12;101497.91;;;6.12;98.08
72116;BME280;59991;52.140;5.428;2023-02-22T02:28:24;101495.53;;;6.10;98.22
72116;BME280;59991;52.140;5.428;2023-02-22T02:29:12;101498.25;;;6.10;97.87
72116;BME280;59991;52.140;5.428;2023-02-22T02:31:14;101496.00;;;6.12;98.48
72116;BME280;59991;52.140;5.428;2023-02-22T02:33:21;101502.22;;;6.13;98.29
72116;BME280;59991;52.140;5.428;2023-02-22T02:34:06;101501.41;;;6.12;98.50
72116;BME280;59991;52.140;5.428;2023-02-22T02:34:57;101499.69;;;6.08;98.28
72116;BME280;59991;52.140;5.428;2023-02-22T02:36:16;101495.47;;;5.98;97.95
72116;BME280;59991;52.140;5.428;2023-02-22T02:36:57;101496.56;;;5.97;97.99
72116;BME280;59991;52.140;5.428;2023-02-22T02:38:33;101496.13;;;5.95;97.81
72116;BME280;59991;52.140;5.428;2023-02-22T02:39:17;101487.09;;;5.91;98.39
72116;BME280;59991;52.140;5.428;2023-02-22T02:40:10;101490.72;;;5.95;98.11
72116;BME280;59991;52.140;5.428;2023-02-22T02:40:58;101490.38;;;5.97;98.54
72116;BME280;59991;52.140;5.428;2023-02-22T02:41:40;101484.53;;;5.95;98.02
72116;BME280;59991;52.140;5.428;2023-02-22T02:42:15;101476.25;;;5.91;97.78
72116;BME280;59991;52.140;5.428;2023-02-22T02:42:56;101479.28;;;5.89;97.86
72116;BME280;59991;52.140;5.428;2023-02-22T02:44:21;101474.34;;;5.92;98.26
72116;BME280;59991;52.140;5.428;2023-02-22T02:45:04;101483.59;;;5.91;97.90
72116;BME280;59991;52.140;5.428;2023-02-22T02:45:44;101482.00;;;5.89;98.31
72116;BME280;59991;52.140;5.428;2023-02-22T02:46:30;101472.28;;;5.88;98.28
72116;BME280;59991;52.140;5.428;2023-02-22T02:47:08;101478.50;;;5.89;97.77
72116;BME280;59991;52.140;5.428;2023-02-22T02:47:47;101478.50;;;5.89;98.11
72116;BME280;59991;52.140;5.428;2023-02-22T02:48:24;101475.00;;;5.88;98.09
72116;BME280;59991;52.140;5.428;2023-02-22T02:49:02;101476.88;;;5.88;98.11
72116;BME280;59991;52.140;5.428;2023-02-22T02:49:39;101481.22;;;5.89;98.16
72116;BME280;59991;52.140;5.428;2023-02-22T02:50:22;101477.38;;;5.90;97.91
72116;BME280;59991;52.140;5.428;2023-02-22T02:50:56;101478.50;;;5.89;98.02
72116;BME280;59991;52.140;5.428;2023-02-22T02:51:33;101474.69;;;5.90;98.43
72116;BME280;59991;52.140;5.428;2023-02-22T02:52:08;101472.13;;;5.85;98.01
72116;BME280;59991;52.140;5.428;2023-02-22T02:52:43;101471.00;;;5.86;98.08
72116;BME280;59991;52.140;5.428;2023-02-22T02:53:20;101478.00;;;5.87;98.34
72116;BME280;59991;52.140;5.428;2023-02-22T02:53:53;101478.00;;;5.87;98.19
72116;BME280;59991;52.140;5.428;2023-02-22T02:54:25;101471.78;;;5.86;98.45
72116;BME280;59991;52.140;5.428;2023-02-22T02:54:57;101460.97;;;5.86;98.28
72116;BME280;59991;52.140;5.428;2023-02-22T02:55:30;101471.16;;;5.89;98.76
72116;BME280;59991;52.140;5.428;2023-02-22T02:56:02;101469.59;;;5.88;98.20
72116;BME280;59991;52.140;5.428;2023-02-22T02:56:34;101461.13;;;5.90;98.69
72116;BME280;59991;52.140;5.428;2023-02-22T02:57:06;101459.06;;;5.87;98.24
72116;BME280;59991;52.140;5.428;2023-02-22T02:57:39;101466.22;;;5.92;98.48
72116;BME280;59991;52.140;5.428;2023-02-22T02:58:18;101464.31;;;5.92;98.23
72116;BME280;59991;52.140;5.428;2023-02-22T02:58:51;101468.59;;;5.93;98.75
72116;BME280;59991;52.140;5.428;2023-02-22T02:59:34;101464.31;;;5.92;98.58
72116;BME280;59991;52.140;5.428;2023-02-22T03:00:08;101462.72;;;5.91;98.06
72116;BME280;59991;52.140;5.428;2023-02-22T03:00:56;101466.22;;;5.92;98.19
72116;BME280;59991;52.140;5.428;2023-02-22T03:02:50;101466.22;;;5.92;98.36
72116;BME280;59991;52.140;5.428;2023-02-22T03:03:45;101462.41;;;5.93;98.64
72116;BME280;59991;52.140;5.428;2023-02-22T03:07:03;101460.84;;;5.83;98.20
72116;BME280;59991;52.140;5.428;2023-02-22T03:09:28;101460.38;;;5.81;97.94
72116;BME280;59991;52.140;5.428;2023-02-22T03:11:18;101461.47;;;5.80;97.60
72116;BME280;59991;52.140;5.428;2023-02-22T03:12:16;101457.19;;;5.79;97.70
72116;BME280;59991;52.140;5.428;2023-02-22T03:13:49;101452.09;;;5.77;97.54
72116;BME280;59991;52.140;5.428;2023-02-22T03:14:40;101456.75;;;5.77;97.69
72116;BME280;59991;52.140;5.428;2023-02-22T03:15:23;101450.56;;;5.76;97.74
72116;BME280;59991;52.140;5.428;2023-02-22T03:16:59;101455.97;;;5.76;97.32
72116;BME280;59991;52.140;5.428;2023-02-22T03:17:43;101452.47;;;5.76;98.03
72116;BME280;59991;52.140;5.428;2023-02-22T03:18:27;101456.28;;;5.75;97.53
72116;BME280;59991;52.140;5.428;2023-02-22T03:19:22;101452.78;;;5.74;97.76
72116;BME280;59991;52.140;5.428;2023-02-22T03:20:00;101453.59;;;5.75;97.41
72116;BME280;59991;52.140;5.428;2023-02-22T03:21:33;101457.41;;;5.74;97.51
72116;BME280;59991;52.140;5.428;2023-02-22T03:22:12;101450.41;;;5.73;97.76
72116;BME280;59991;52.140;5.428;2023-02-22T03:22:55;101456.16;;;5.71;97.60
72116;BME280;59991;52.140;5.428;2023-02-22T03:23:34;101456.94;;;5.72;97.49
72116;BME280;59991;52.140;5.428;2023-02-22T03:24:18;101454.25;;;5.72;97.43
72116;BME280;59991;52.140;5.428;2023-02-22T03:25:02;101451.84;;;5.70;97.50
72116;BME280;59991;52.140;5.428;2023-02-22T03:25:42;101455.69;;;5.69;97.48
72116;BME280;59991;52.140;5.428;2023-02-22T03:26:21;101456.47;;;5.70;97.37
72116;BME280;59991;52.140;5.428;2023-02-22T03:27:03;101448.22;;;5.66;97.61
72116;BME280;59991;52.140;5.428;2023-02-22T03:27:43;101448.22;;;5.66;96.78